createdAt,value
2023-04-10T00:00:57.357Z,62.73
2023-04-10T00:03:25.505Z,62.21
2023-04-10T00:05:53.113Z,62.29
2023-04-10T00:08:21.837Z,62.92
2023-04-10T00:10:48.896Z,63.04
2023-04-10T00:13:16.632Z,62.85
2023-04-10T00:15:44.081Z,63.03
2023-04-10T00:18:11.935Z,62.92
2023-04-10T00:20:39.387Z,62.68
2023-04-10T00:23:07.807Z,63.46
2023-04-10T00:25:36.425Z,63.30
2023-04-10T00:28:04.157Z,63.87
2023-04-10T00:30:31.830Z,64.99
2023-04-10T00:32:59.212Z,65.06
2023-04-10T00:35:26.359Z,65.71
2023-04-10T00:37:53.625Z,65.64
2023-04-10T00:40:20.720Z,64.76
2023-04-10T00:42:49.177Z,68.04
2023-04-10T00:45:16.362Z,70.79
2023-04-10T00:47:44.075Z,71.27
2023-04-10T00:50:11.783Z,71.78
2023-04-10T00:52:39.481Z,71.65
2023-04-10T00:55:09.459Z,70.63
2023-04-10T00:57:38.038Z,71.06
2023-04-10T01:00:09.385Z,72.01
2023-04-10T01:02:36.819Z,72.25
2023-04-10T01:05:07.540Z,71.40
2023-04-10T01:07:58.777Z,70.66
2023-04-10T01:10:45.813Z,72.71
2023-04-10T01:13:22.668Z,74.19
2023-04-10T01:16:01.673Z,72.89
2023-04-10T01:18:38.020Z,72.10
2023-04-10T01:21:11.052Z,71.37
2023-04-10T01:24:07.608Z,70.29
2023-04-10T01:27:12.830Z,70.56
2023-04-10T01:29:47.993Z,71.26
2023-04-10T01:32:22.020Z,71.11
2023-04-10T01:34:54.150Z,71.01
2023-04-10T01:37:27.709Z,71.96
2023-04-10T01:40:01.063Z,73.37
2023-04-10T01:42:32.317Z,73.68
2023-04-10T01:45:04.791Z,74.15
2023-04-10T01:47:32.431Z,73.71
2023-04-10T01:50:01.361Z,72.62
2023-04-10T01:52:31.316Z,71.20
2023-04-10T01:55:21.492Z,70.95
2023-04-10T01:57:55.051Z,70.74
2023-04-10T02:00:25.012Z,70.60
2023-04-10T02:02:52.412Z,71.13
2023-04-10T02:05:21.002Z,71.36
2023-04-10T02:08:02.180Z,70.97
2023-04-10T02:10:39.568Z,71.29
2023-04-10T02:13:11.634Z,71.55
2023-04-10T02:15:46.320Z,71.32
2023-04-10T02:18:17.816Z,70.54
2023-04-10T02:20:45.840Z,70.72
2023-04-10T02:23:15.732Z,70.82
2023-04-10T02:25:43.036Z,70.99
2023-04-10T02:28:10.103Z,70.36
2023-04-10T02:30:37.357Z,70.26
2023-04-10T02:33:06.561Z,70.37
2023-04-10T02:35:34.771Z,70.84
2023-04-10T02:38:03.855Z,71.19
2023-04-10T02:40:32.318Z,71.22
2023-04-10T02:43:13.161Z,70.82
2023-04-10T02:45:40.882Z,70.73
2023-04-10T02:48:11.260Z,71.43
2023-04-10T02:50:39.022Z,71.49
2023-04-10T02:53:06.397Z,71.06
2023-04-10T02:55:33.746Z,71.40
2023-04-10T02:58:00.978Z,71.38
2023-04-10T03:00:30.945Z,71.69
2023-04-10T03:03:21.324Z,71.63
2023-04-10T03:05:58.418Z,71.48
2023-04-10T03:08:48.467Z,77.26
2023-04-10T03:11:15.579Z,72.55
2023-04-10T03:13:42.791Z,72.71
2023-04-10T03:16:10.254Z,72.37
2023-04-10T03:18:39.387Z,72.40
2023-04-10T03:21:08.425Z,72.32
2023-04-10T03:23:35.984Z,72.20
2023-04-10T03:26:03.550Z,71.96
2023-04-10T03:28:33.824Z,71.28
2023-04-10T03:31:01.557Z,71.14
2023-04-10T03:33:30.985Z,71.51
2023-04-10T03:36:01.842Z,71.47
2023-04-10T03:38:28.973Z,71.59
2023-04-10T03:40:56.421Z,72.24
2023-04-10T03:43:26.020Z,72.30
2023-04-10T03:45:53.279Z,72.55
2023-04-10T03:48:21.437Z,72.28
2023-04-10T03:50:48.791Z,72.61
2023-04-10T03:53:17.628Z,73.49
2023-04-10T03:55:45.818Z,75.75
2023-04-10T03:58:13.110Z,77.36
2023-04-10T04:00:40.481Z,78.96
2023-04-10T04:03:14.036Z,80.35
2023-04-10T04:05:57.081Z,80.92
2023-04-10T04:08:45.357Z,80.49
2023-04-10T04:11:38.179Z,79.86
2023-04-10T04:14:13.160Z,80.45
2023-04-10T04:16:47.733Z,81.80
2023-04-10T04:19:31.980Z,81.49
2023-04-10T04:22:28.686Z,80.76
2023-04-10T04:25:09.075Z,80.61
2023-04-10T04:27:51.810Z,80.01
2023-04-10T04:30:42.258Z,78.40
2023-04-10T04:33:17.178Z,76.85
2023-04-10T04:36:22.370Z,75.83
2023-04-10T04:39:12.254Z,75.38
2023-04-10T04:42:04.397Z,74.35
2023-04-10T04:44:52.537Z,73.93
2023-04-10T04:47:38.221Z,74.88
2023-04-10T04:50:15.161Z,75.02
2023-04-10T04:52:57.940Z,74.73
2023-04-10T04:55:31.185Z,74.68
2023-04-10T04:58:31.895Z,75.28
2023-04-10T05:01:17.835Z,74.75
2023-04-10T05:03:54.365Z,73.20
2023-04-10T05:06:40.809Z,70.71
2023-04-10T05:09:15.914Z,69.30
2023-04-10T05:12:00.686Z,67.15
2023-04-10T05:14:51.922Z,64.83
2023-04-10T05:17:45.043Z,62.52
2023-04-10T05:20:18.369Z,61.32
2023-04-10T05:23:05.789Z,61.05
2023-04-10T05:25:51.282Z,62.08
2023-04-10T05:28:21.931Z,62.83
2023-04-10T05:31:10.490Z,63.08
2023-04-10T05:33:50.723Z,62.42
2023-04-10T05:36:36.455Z,61.03
2023-04-10T05:39:08.450Z,60.21
2023-04-10T05:41:51.651Z,59.15
2023-04-10T05:44:24.008Z,57.94
2023-04-10T05:47:02.095Z,57.19
2023-04-10T05:49:48.107Z,55.46
2023-04-10T05:52:17.944Z,55.95
2023-04-10T05:55:09.583Z,56.94
2023-04-10T05:58:15.010Z,56.12
2023-04-10T06:01:11.653Z,55.49
2023-04-10T06:03:49.572Z,56.02
2023-04-10T06:06:21.126Z,55.25
2023-04-10T06:08:48.689Z,53.87
2023-04-10T06:11:15.630Z,53.84
2023-04-10T06:13:47.437Z,52.95
2023-04-10T06:16:14.391Z,53.08
2023-04-10T06:18:42.385Z,53.44
2023-04-10T06:21:11.706Z,53.79
2023-04-10T06:23:39.068Z,53.11
2023-04-10T06:26:06.683Z,52.81
2023-04-10T06:28:33.507Z,52.68
2023-04-10T06:31:03.479Z,52.73
2023-04-10T06:33:34.282Z,50.57
2023-04-10T06:36:28.308Z,48.95
2023-04-10T06:39:00.737Z,47.55
2023-04-10T06:41:27.882Z,46.77
2023-04-10T06:43:57.543Z,46.17
2023-04-10T06:46:24.651Z,45.80
2023-04-10T06:48:51.629Z,44.25
2023-04-10T06:51:18.576Z,44.24
2023-04-10T06:53:47.560Z,45.87
2023-04-10T06:56:14.394Z,44.01
2023-04-10T06:58:41.269Z,40.83
2023-04-10T07:01:08.260Z,38.99
2023-04-10T07:03:35.879Z,36.52
2023-04-10T07:06:03.920Z,35.46
2023-04-10T07:08:30.884Z,34.77
2023-04-10T07:10:59.169Z,34.75
2023-04-10T07:13:26.115Z,34.87
2023-04-10T07:15:53.102Z,35.13
2023-04-10T07:18:22.444Z,35.01
2023-04-10T07:20:51.300Z,33.36
2023-04-10T07:23:18.557Z,32.56
2023-04-10T07:26:13.772Z,33.09
2023-04-10T07:28:40.832Z,33.09
2023-04-10T07:31:09.053Z,33.43
2023-04-10T07:33:36.185Z,33.42
2023-04-10T07:36:03.496Z,32.73
2023-04-10T07:38:30.416Z,33.53
2023-04-10T07:40:57.712Z,32.71
2023-04-10T07:43:26.445Z,31.35
2023-04-10T07:45:53.465Z,31.52
2023-04-10T07:48:20.595Z,29.41
2023-04-10T07:50:47.667Z,29.72
2023-04-10T07:53:14.631Z,30.60
2023-04-10T07:55:44.243Z,30.22
2023-04-10T07:58:11.837Z,31.60
2023-04-10T08:00:40.368Z,31.44
2023-04-10T08:03:08.593Z,29.27
2023-04-10T08:05:35.612Z,28.79
2023-04-10T08:08:02.622Z,27.75
2023-04-10T08:10:29.557Z,29.55
2023-04-10T08:12:57.018Z,28.39
2023-04-10T08:15:24.028Z,26.79
2023-04-10T08:17:52.321Z,28.22
2023-04-10T08:20:19.515Z,29.46
2023-04-10T08:22:46.426Z,31.24
2023-04-10T08:25:13.337Z,31.86
2023-04-10T08:27:40.330Z,32.73
2023-04-10T08:30:08.815Z,34.57
2023-04-10T08:32:36.219Z,36.14
2023-04-10T08:35:06.002Z,34.10
2023-04-10T08:37:33.446Z,31.96
2023-04-10T08:40:00.364Z,33.19
2023-04-10T08:42:27.469Z,33.76
2023-04-10T08:44:54.839Z,34.33
2023-04-10T08:47:27.652Z,34.90
2023-04-10T08:49:57.819Z,35.39
2023-04-10T08:52:30.638Z,35.13
2023-04-10T08:55:02.536Z,34.42
2023-04-10T08:57:30.092Z,33.08
2023-04-10T08:59:59.481Z,31.03
2023-04-10T09:02:40.872Z,33.59
2023-04-10T09:05:12.092Z,33.21
2023-04-10T09:07:41.817Z,34.29
2023-04-10T09:10:10.309Z,35.31
2023-04-10T09:12:44.796Z,34.99
2023-04-10T09:15:12.329Z,36.09
2023-04-10T09:17:55.213Z,36.51
2023-04-10T09:20:25.195Z,34.12
2023-04-10T09:22:54.207Z,34.71
2023-04-10T09:25:33.956Z,33.89
2023-04-10T09:28:04.238Z,35.18
2023-04-10T09:30:40.036Z,35.34
2023-04-10T09:33:24.914Z,34.92
2023-04-10T09:35:51.942Z,33.56
2023-04-10T09:38:21.679Z,35.35
2023-04-10T09:40:49.644Z,34.79
2023-04-10T09:43:22.494Z,35.39
2023-04-10T09:45:52.246Z,34.51
2023-04-10T09:48:20.831Z,35.16
2023-04-10T09:50:48.727Z,35.21
2023-04-10T09:53:18.154Z,33.55
2023-04-10T09:55:48.424Z,34.79
2023-04-10T09:58:17.499Z,34.29
2023-04-10T10:00:46.696Z,32.62
2023-04-10T10:03:17.003Z,32.79
2023-04-10T10:05:46.259Z,32.88
2023-04-10T10:08:15.670Z,33.03
2023-04-10T10:10:50.662Z,32.27
2023-04-10T10:13:35.577Z,31.57
2023-04-10T10:16:12.968Z,32.71
2023-04-10T10:18:50.868Z,32.31
2023-04-10T10:21:20.625Z,32.73
2023-04-10T10:23:49.505Z,32.66
2023-04-10T10:26:19.499Z,32.49
2023-04-10T10:28:47.362Z,32.07
2023-04-10T10:31:16.239Z,32.24
2023-04-10T10:33:44.262Z,32.39
2023-04-10T10:36:12.070Z,32.70
2023-04-10T10:38:48.171Z,32.22
2023-04-10T10:41:28.682Z,31.43
2023-04-10T10:44:08.323Z,32.77
2023-04-10T10:46:44.554Z,33.73
2023-04-10T10:49:11.524Z,33.70
2023-04-10T10:51:47.299Z,31.23
2023-04-10T10:54:34.562Z,30.87
2023-04-10T10:57:03.605Z,31.44
2023-04-10T10:59:55.856Z,30.30
2023-04-10T11:02:23.829Z,30.08
2023-04-10T11:04:50.869Z,30.22
2023-04-10T11:07:18.330Z,30.26
2023-04-10T11:09:51.969Z,30.04
2023-04-10T11:12:23.428Z,30.06
2023-04-10T11:15:01.390Z,27.71
2023-04-10T11:17:50.425Z,28.34
2023-04-10T11:20:18.574Z,28.23
2023-04-10T11:23:12.141Z,28.85
2023-04-10T11:25:51.051Z,28.72
2023-04-10T11:28:39.341Z,27.53
2023-04-10T11:31:21.312Z,28.95
2023-04-10T11:33:50.501Z,29.54
2023-04-10T11:36:17.782Z,28.92
2023-04-10T11:38:55.879Z,28.40
2023-04-10T11:41:28.476Z,28.35
2023-04-10T11:43:57.720Z,27.13
2023-04-10T11:46:24.907Z,27.80
2023-04-10T11:48:58.828Z,26.29
2023-04-10T11:51:25.980Z,26.81
2023-04-10T11:54:06.511Z,27.58
2023-04-10T11:56:33.753Z,26.46
2023-04-10T11:59:02.511Z,26.93
2023-04-10T12:01:29.850Z,28.16
2023-04-10T12:03:57.311Z,28.17
2023-04-10T12:06:24.774Z,28.79
2023-04-10T12:08:52.793Z,28.96
2023-04-10T12:11:22.144Z,28.82
2023-04-10T12:13:53.289Z,29.27
2023-04-10T12:16:22.599Z,28.44
2023-04-10T12:18:50.478Z,27.86
2023-04-10T12:21:18.816Z,26.76
2023-04-10T12:23:45.688Z,27.78
2023-04-10T12:26:15.740Z,27.37
2023-04-10T12:28:52.346Z,26.95
2023-04-10T12:31:28.815Z,25.50
2023-04-10T12:33:56.176Z,25.71
2023-04-10T12:36:24.651Z,25.78
2023-04-10T12:38:51.790Z,26.76
2023-04-10T12:41:23.384Z,25.15
2023-04-10T12:43:51.956Z,26.54
2023-04-10T12:46:28.586Z,26.98
2023-04-10T12:48:56.416Z,26.66
2023-04-10T12:51:42.101Z,26.10
2023-04-10T12:54:09.084Z,26.01
2023-04-10T12:56:43.080Z,26.35
2023-04-10T12:59:10.778Z,25.59
2023-04-10T13:01:39.550Z,26.61
2023-04-10T13:04:06.938Z,27.09
2023-04-10T13:06:42.518Z,25.96
2023-04-10T13:09:09.422Z,25.34
2023-04-10T13:11:37.043Z,26.90
2023-04-10T13:14:04.183Z,25.27
2023-04-10T13:16:31.480Z,25.21
2023-04-10T13:19:01.336Z,25.03
2023-04-10T13:21:29.039Z,25.28
2023-04-10T13:23:56.201Z,24.73
2023-04-10T13:26:23.391Z,25.21
2023-04-10T13:28:50.671Z,25.82
2023-04-10T13:31:17.695Z,26.15
2023-04-10T13:33:46.187Z,25.62
2023-04-10T13:36:15.405Z,25.74
2023-04-10T13:38:42.764Z,25.90
2023-04-10T13:41:09.992Z,26.03
2023-04-10T13:43:37.189Z,25.96
2023-04-10T13:46:04.325Z,25.42
2023-04-10T13:48:54.450Z,25.52
2023-04-10T13:51:19.548Z,25.25
2023-04-10T13:53:46.703Z,24.31
2023-04-10T13:56:13.565Z,24.21
2023-04-10T13:58:40.463Z,24.65
2023-04-10T14:01:08.062Z,24.90
2023-04-10T14:03:35.028Z,24.59
2023-04-10T14:06:02.499Z,23.52
2023-04-10T14:08:30.924Z,23.85
2023-04-10T14:10:57.844Z,22.49
2023-04-10T14:13:25.009Z,22.40
2023-04-10T14:15:52.101Z,23.59
2023-04-10T14:18:19.112Z,23.34
2023-04-10T14:20:46.157Z,23.75
2023-04-10T14:23:13.256Z,23.62
2023-04-10T14:25:41.709Z,23.80
2023-04-10T14:28:08.690Z,24.22
2023-04-10T14:30:35.658Z,23.13
2023-04-10T14:33:02.554Z,23.40
2023-04-10T14:35:29.466Z,24.09
2023-04-10T14:37:56.747Z,23.78
2023-04-10T14:40:25.901Z,23.47
2023-04-10T14:42:54.128Z,24.04
2023-04-10T14:45:21.050Z,24.14
2023-04-10T14:47:48.194Z,24.19
2023-04-10T14:50:15.311Z,24.46
2023-04-10T14:52:42.171Z,24.20
2023-04-10T14:55:10.382Z,24.27
2023-04-10T14:57:37.613Z,24.00
2023-04-10T15:00:08.212Z,25.04
2023-04-10T15:02:35.979Z,23.85
2023-04-10T15:05:03.053Z,24.19
2023-04-10T15:07:30.097Z,24.76
2023-04-10T15:09:57.725Z,25.47
2023-04-10T15:12:25.342Z,24.46
2023-04-10T15:14:52.349Z,24.90
2023-04-10T15:17:23.512Z,24.44
2023-04-10T15:19:51.844Z,25.32
2023-04-10T15:22:18.754Z,26.49
2023-04-10T15:24:50.632Z,26.59
2023-04-10T15:27:19.925Z,25.62
2023-04-10T15:29:47.030Z,25.38
2023-04-10T15:32:14.276Z,25.12
2023-04-10T15:34:43.845Z,25.73
2023-04-10T15:37:10.680Z,26.75
2023-04-10T15:39:37.553Z,26.15
2023-04-10T15:42:06.249Z,25.43
2023-04-10T15:44:33.172Z,25.59
2023-04-10T15:47:00.040Z,25.39
2023-04-10T15:49:37.262Z,25.33
2023-04-10T15:52:07.204Z,25.68
2023-04-10T15:54:35.387Z,26.11
2023-04-10T15:57:03.703Z,26.10
2023-04-10T15:59:31.141Z,25.80
2023-04-10T16:01:58.337Z,25.35
2023-04-10T16:04:25.341Z,26.33
2023-04-10T16:06:53.125Z,26.86
2023-04-10T16:09:26.221Z,26.09
2023-04-10T16:11:54.345Z,27.39
2023-04-10T16:14:21.899Z,27.21
2023-04-10T16:16:48.984Z,27.14
2023-04-10T16:19:15.945Z,26.41
2023-04-10T16:21:42.946Z,26.56
2023-04-10T16:24:40.211Z,27.54
2023-04-10T16:27:07.288Z,28.26
2023-04-10T16:29:34.906Z,29.39
2023-04-10T16:32:02.009Z,30.84
2023-04-10T16:34:28.840Z,31.30
2023-04-10T16:37:24.321Z,30.15
2023-04-10T16:39:52.771Z,31.26
2023-04-10T16:42:19.765Z,31.24
2023-04-10T16:46:02.160Z,31.72
2023-04-10T16:48:29.595Z,31.05
2023-04-10T16:50:58.372Z,30.94
2023-04-10T16:53:27.192Z,31.88
2023-04-10T16:56:01.535Z,31.61
2023-04-10T16:58:30.583Z,31.94
2023-04-10T17:00:57.611Z,32.04
2023-04-10T17:03:24.873Z,32.15
2023-04-10T17:05:52.388Z,31.72
2023-04-10T17:08:19.480Z,31.90
2023-04-10T17:10:46.680Z,31.70
2023-04-10T17:13:14.930Z,32.01
2023-04-10T17:15:41.807Z,31.99
2023-04-10T17:18:08.844Z,32.19
2023-04-10T17:20:36.278Z,32.45
2023-04-10T17:23:03.369Z,32.53
2023-04-10T17:25:30.413Z,33.32
2023-04-10T17:27:57.535Z,33.23
2023-04-10T17:30:26.154Z,33.38
2023-04-10T17:32:54.159Z,33.79
2023-04-10T17:35:21.175Z,33.63
2023-04-10T17:37:48.031Z,33.97
2023-04-10T17:40:14.870Z,34.23
2023-04-10T17:42:42.441Z,34.56
2023-04-10T17:45:10.575Z,34.70
2023-04-10T17:47:38.911Z,34.53
2023-04-10T17:50:08.010Z,34.45
2023-04-10T17:52:35.320Z,34.72
2023-04-10T17:55:02.503Z,34.89
2023-04-10T17:57:29.325Z,34.95
2023-04-10T17:59:56.411Z,35.63
2023-04-10T18:02:23.386Z,35.44
2023-04-10T18:04:51.793Z,35.02
2023-04-10T18:07:19.073Z,35.49
2023-04-10T18:09:48.618Z,35.30
2023-04-10T18:12:15.507Z,35.46
2023-04-10T18:14:42.729Z,36.09
2023-04-10T18:17:09.700Z,36.25
2023-04-10T18:19:37.025Z,36.55
2023-04-10T18:22:05.337Z,36.98
2023-04-10T18:24:32.317Z,37.07
2023-04-10T18:26:59.424Z,36.28
2023-04-10T18:29:26.506Z,36.84
2023-04-10T18:31:53.606Z,37.10
2023-04-10T18:34:20.659Z,37.19
2023-04-10T18:36:48.482Z,37.69
2023-04-10T18:39:17.117Z,38.35
2023-04-10T18:41:44.032Z,38.03
2023-04-10T18:44:11.555Z,37.21
2023-04-10T18:46:44.380Z,37.48
2023-04-10T18:49:13.592Z,36.81
2023-04-10T18:51:40.943Z,37.26
2023-04-10T18:54:08.231Z,37.43
2023-04-10T18:56:36.530Z,37.55
2023-04-10T18:59:04.360Z,38.63
2023-04-10T19:01:31.318Z,38.68
2023-04-10T19:03:58.803Z,37.61
2023-04-10T19:06:25.943Z,37.77
2023-04-10T19:08:53.301Z,38.06
2023-04-10T19:11:20.250Z,38.52
2023-04-10T19:13:48.793Z,38.78
2023-04-10T19:16:16.065Z,38.71
2023-04-10T19:18:42.957Z,39.04
2023-04-10T19:21:10.214Z,39.74
2023-04-10T19:23:37.697Z,39.68
2023-04-10T19:26:05.780Z,39.89
2023-04-10T19:28:34.693Z,38.38
2023-04-10T19:31:03.411Z,38.24
2023-04-10T19:37:19.846Z,37.81
2023-04-10T19:39:46.890Z,38.19
2023-04-10T19:42:14.059Z,39.35
2023-04-10T19:44:41.385Z,39.70
2023-04-10T19:47:09.809Z,39.99
2023-04-10T19:49:36.918Z,40.98
2023-04-10T19:52:04.330Z,40.98
2023-04-10T19:54:31.440Z,41.02
2023-04-10T19:56:58.387Z,40.38
2023-04-10T19:59:25.495Z,41.28
2023-04-10T20:01:55.174Z,43.86
2023-04-10T20:04:24.868Z,43.73
2023-04-10T20:06:52.124Z,42.87
2023-04-10T20:09:19.038Z,43.08
2023-04-10T20:11:47.869Z,44.33
2023-04-10T20:14:14.751Z,44.12
2023-04-10T20:16:41.784Z,43.77
2023-04-10T20:19:09.042Z,43.67
2023-04-10T20:21:37.460Z,43.56
2023-04-10T20:24:04.984Z,42.93
2023-04-10T20:26:32.029Z,42.27
2023-04-10T20:28:59.543Z,42.46
2023-04-10T20:31:26.950Z,42.90
2023-04-10T20:33:57.009Z,42.98
2023-04-10T20:36:23.970Z,43.33
2023-04-10T20:38:52.553Z,43.06
2023-04-10T20:41:19.883Z,43.02
2023-04-10T20:43:47.035Z,42.96
2023-04-10T20:46:13.920Z,42.98
2023-04-10T20:48:40.839Z,43.30
2023-04-10T20:51:09.364Z,43.76
2023-04-10T20:53:36.317Z,43.47
2023-04-10T20:56:06.478Z,42.82
2023-04-10T20:58:34.689Z,42.77
2023-04-10T21:01:02.892Z,42.96
2023-04-10T21:03:30.292Z,42.19
2023-04-10T21:05:57.454Z,42.31
2023-04-10T21:08:24.488Z,42.58
2023-04-10T21:10:51.755Z,42.66
2023-04-10T21:13:21.164Z,42.79
2023-04-10T21:15:48.575Z,43.44
2023-04-10T21:18:15.438Z,43.45
2023-04-10T21:20:42.427Z,43.09
2023-04-10T21:23:10.672Z,42.44
2023-04-10T21:25:39.659Z,42.82
2023-04-10T21:28:06.684Z,43.18
2023-04-10T21:30:35.089Z,43.33
2023-04-10T21:33:02.128Z,43.15
2023-04-10T21:35:29.089Z,43.58
2023-04-10T21:37:56.001Z,44.04
2023-04-10T21:40:23.312Z,43.97
2023-04-10T21:42:50.311Z,44.89
2023-04-10T21:45:17.540Z,45.29
2023-04-10T21:47:45.800Z,45.54
2023-04-10T21:50:12.689Z,45.94
2023-04-10T21:52:39.596Z,46.48
2023-04-10T21:55:08.359Z,46.28
2023-04-10T21:57:35.203Z,46.52
2023-04-10T22:00:02.437Z,46.66
2023-04-10T22:02:32.618Z,46.79
2023-04-10T22:05:01.674Z,46.56
2023-04-10T22:07:28.578Z,46.43
2023-04-10T22:09:55.791Z,46.50
2023-04-10T22:12:22.637Z,46.44
2023-04-10T22:14:49.707Z,47.28
2023-04-10T22:17:16.887Z,47.17
2023-04-10T22:19:43.926Z,46.65
2023-04-10T22:22:13.722Z,47.05
2023-04-10T22:24:40.743Z,47.56
2023-04-10T22:27:07.723Z,47.23
2023-04-10T22:29:35.819Z,48.27
2023-04-10T22:32:02.739Z,48.48
2023-04-10T22:34:29.526Z,48.20
2023-04-10T22:36:56.603Z,48.16
2023-04-10T22:39:24.834Z,48.46
2023-04-10T22:41:51.783Z,47.74
2023-04-10T22:44:18.778Z,47.35
2023-04-10T22:46:45.931Z,47.36
2023-04-10T22:49:13.051Z,47.26
2023-04-10T22:51:39.954Z,47.62
2023-04-10T22:54:06.925Z,47.90
2023-04-10T22:56:37.121Z,47.48
2023-04-10T22:59:04.857Z,47.73
2023-04-10T23:01:31.887Z,48.04
2023-04-10T23:03:58.897Z,47.98
2023-04-10T23:06:26.082Z,47.67
2023-04-10T23:08:53.007Z,47.84
2023-04-10T23:11:20.435Z,47.33
2023-04-10T23:13:48.686Z,47.85
2023-04-10T23:16:15.729Z,47.99
2023-04-10T23:18:42.638Z,48.52
2023-04-10T23:21:10.061Z,48.85
2023-04-10T23:23:36.970Z,49.09
2023-04-10T23:26:04.290Z,48.82
2023-04-10T23:28:31.435Z,49.33
2023-04-10T23:30:59.677Z,48.72
2023-04-10T23:33:26.531Z,48.81
2023-04-10T23:35:53.522Z,48.99
2023-04-10T23:38:20.762Z,49.02
2023-04-10T23:40:47.784Z,48.83
2023-04-10T23:43:14.813Z,48.61
2023-04-10T23:45:43.370Z,49.04
2023-04-10T23:48:11.660Z,49.79
2023-04-10T23:50:38.624Z,49.41
2023-04-10T23:53:05.581Z,50.42
2023-04-10T23:55:33.002Z,50.71
2023-04-10T23:58:00.312Z,50.56
